sensor_id;sensor_type;location;lat;lon;timestamp;pressure;altitude;pressure_sealevel;temperature;humidity
48527;BME280;34317;51.660;5.824;2023-07-29T00:01:40;100660.72;;;22.60;55.26
48527;BME280;34317;51.660;5.824;2023-07-29T00:04:08;100657.34;;;22.58;55.29
48527;BME280;34317;51.660;5.824;2023-07-29T00:06:36;100663.06;;;22.55;55.35
48527;BME280;34317;51.660;5.824;2023-07-29T00:09:03;100663.06;;;22.55;55.35
48527;BME280;34317;51.660;5.824;2023-07-29T00:11:30;100657.94;;;22.52;55.44
48527;BME280;34317;51.660;5.824;2023-07-29T00:14:01;100654.56;;;22.50;55.24
48527;BME280;34317;51.660;5.824;2023-07-29T00:16:28;100640.38;;;22.48;55.29
48527;BME280;34317;51.660;5.824;2023-07-29T00:18:55;100627.84;;;22.47;55.37
48527;BME280;34317;51.660;5.824;2023-07-29T00:21:22;100619.06;;;22.45;55.38
48527;BME280;34317;51.660;5.824;2023-07-29T00:23:49;100606.59;;;22.44;55.39
48527;BME280;34317;51.660;5.824;2023-07-29T00:26:16;100616.69;;;22.42;55.51
48527;BME280;34317;51.660;5.824;2023-07-29T00:28:43;100614.00;;;22.42;55.58
48527;BME280;34317;51.660;5.824;2023-07-29T00:31:10;100610.44;;;22.41;55.49
48527;BME280;34317;51.660;5.824;2023-07-29T00:33:37;100607.72;;;22.41;55.57
48527;BME280;34317;51.660;5.824;2023-07-29T00:36:04;100603.19;;;22.42;55.58
48527;BME280;34317;51.660;5.824;2023-07-29T00:38:31;100603.19;;;22.42;55.53
48527;BME280;34317;51.660;5.824;2023-07-29T00:41:02;100610.44;;;22.41;55.54
48527;BME280;34317;51.660;5.824;2023-07-29T00:43:30;100623.06;;;22.41;55.60
48527;BME280;34317;51.660;5.824;2023-07-29T00:45:57;100628.47;;;22.41;55.57
48527;BME280;34317;51.660;5.824;2023-07-29T00:48:25;100629.31;;;22.41;55.63
48527;BME280;34317;51.660;5.824;2023-07-29T00:50:53;100632.19;;;22.40;55.70
48527;BME280;34317;51.660;5.824;2023-07-29T00:53:20;100628.47;;;22.41;55.69
48527;BME280;34317;51.660;5.824;2023-07-29T00:55:49;100628.47;;;22.41;55.63
48527;BME280;34317;51.660;5.824;2023-07-29T00:58:16;100621.22;;;22.41;55.75
48527;BME280;34317;51.660;5.824;2023-07-29T01:00:43;100613.13;;;22.41;55.75
48527;BME280;34317;51.660;5.824;2023-07-29T01:03:11;100614.97;;;22.41;55.76
48527;BME280;34317;51.660;5.824;2023-07-29T01:05:56;100629.31;;;22.41;55.65
48527;BME280;34317;51.660;5.824;2023-07-29T01:08:42;100612.28;;;22.41;55.72
48527;BME280;34317;51.660;5.824;2023-07-29T01:11:22;100608.88;;;22.39;55.73
48527;BME280;34317;51.660;5.824;2023-07-29T01:13:58;100605.22;;;22.40;55.68
48527;BME280;34317;51.660;5.824;2023-07-29T01:16:39;100594.41;;;22.40;55.65
48527;BME280;34317;51.660;5.824;2023-07-29T01:19:09;100599.09;;;22.38;55.78
48527;BME280;34317;51.660;5.824;2023-07-29T01:21:42;100602.09;;;22.34;55.77
48527;BME280;34317;51.660;5.824;2023-07-29T01:24:09;100603.97;;;22.34;55.86
48527;BME280;34317;51.660;5.824;2023-07-29T01:26:38;100607.50;;;22.34;55.75
48527;BME280;34317;51.660;5.824;2023-07-29T01:29:06;100605.78;;;22.33;55.70
48527;BME280;34317;51.660;5.824;2023-07-29T01:31:34;100612.22;;;22.32;55.75
48527;BME280;34317;51.660;5.824;2023-07-29T01:34:06;100613.19;;;22.31;55.86
48527;BME280;34317;51.660;5.824;2023-07-29T01:36:36;100612.50;;;22.29;55.75
48527;BME280;34317;51.660;5.824;2023-07-29T01:39:06;100601.00;;;22.27;55.75
48527;BME280;34317;51.660;5.824;2023-07-29T01:41:35;100608.41;;;22.25;55.80
48527;BME280;34317;51.660;5.824;2023-07-29T01:44:02;100615.78;;;22.23;55.75
48527;BME280;34317;51.660;5.824;2023-07-29T01:46:31;100600.56;;;22.22;55.95
48527;BME280;34317;51.660;5.824;2023-07-29T01:48:59;100606.97;;;22.21;55.98
48527;BME280;34317;51.660;5.824;2023-07-29T01:51:26;100603.59;;;22.19;55.91
48527;BME280;34317;51.660;5.824;2023-07-29T01:53:53;100603.59;;;22.19;56.06
48527;BME280;34317;51.660;5.824;2023-07-29T01:56:22;100604.56;;;22.18;55.97
48527;BME280;34317;51.660;5.824;2023-07-29T01:58:53;100601.88;;;22.18;56.10
48527;BME280;34317;51.660;5.824;2023-07-29T02:01:20;100599.31;;;22.16;55.98
48527;BME280;34317;51.660;5.824;2023-07-29T02:03:47;100604.72;;;22.16;56.06
48527;BME280;34317;51.660;5.824;2023-07-29T02:06:20;100606.56;;;22.16;56.01
48527;BME280;34317;51.660;5.824;2023-07-29T02:08:47;100606.56;;;22.16;56.16
48527;BME280;34317;51.660;5.824;2023-07-29T02:11:14;100596.78;;;22.15;56.04
48527;BME280;34317;51.660;5.824;2023-07-29T02:13:41;100605.88;;;22.14;56.07
48527;BME280;34317;51.660;5.824;2023-07-29T02:16:08;100605.88;;;22.14;56.15
48527;BME280;34317;51.660;5.824;2023-07-29T02:18:35;100605.88;;;22.14;56.17
48527;BME280;34317;51.660;5.824;2023-07-29T02:21:03;100614.97;;;22.13;56.07
48527;BME280;34317;51.660;5.824;2023-07-29T02:23:30;100597.09;;;22.12;56.16
48527;BME280;34317;51.660;5.824;2023-07-29T02:25:56;100614.97;;;22.13;56.26
48527;BME280;34317;51.660;5.824;2023-07-29T02:28:24;100617.66;;;22.13;56.23
48527;BME280;34317;51.660;5.824;2023-07-29T02:31:08;100620.34;;;22.13;56.30
48527;BME280;34317;51.660;5.824;2023-07-29T02:33:36;100616.97;;;22.11;56.21
48527;BME280;34317;51.660;5.824;2023-07-29T02:36:03;100609.00;;;22.09;56.31
48527;BME280;34317;51.660;5.824;2023-07-29T02:38:30;100597.38;;;22.09;56.29
48527;BME280;34317;51.660;5.824;2023-07-29T02:40:57;100597.38;;;22.09;56.38
48527;BME280;34317;51.660;5.824;2023-07-29T02:43:24;100592.31;;;22.06;56.40
48527;BME280;34317;51.660;5.824;2023-07-29T02:45:51;100592.31;;;22.06;56.31
48527;BME280;34317;51.660;5.824;2023-07-29T02:48:18;100605.06;;;22.04;56.41
48527;BME280;34317;51.660;5.824;2023-07-29T02:50:45;100602.38;;;22.04;56.34
48527;BME280;34317;51.660;5.824;2023-07-29T02:53:12;100603.38;;;22.03;56.21
48527;BME280;34317;51.660;5.824;2023-07-29T02:55:40;100607.06;;;22.02;56.43
48527;BME280;34317;51.660;5.824;2023-07-29T02:58:07;100601.66;;;22.02;56.41
48527;BME280;34317;51.660;5.824;2023-07-29T03:00:34;100590.88;;;22.02;56.38
48527;BME280;34317;51.660;5.824;2023-07-29T03:03:02;100596.81;;;22.05;56.25
48527;BME280;34317;51.660;5.824;2023-07-29T03:05:29;100592.31;;;22.06;56.41
48527;BME280;34317;51.660;5.824;2023-07-29T03:07:58;100597.69;;;22.06;56.33
48527;BME280;34317;51.660;5.824;2023-07-29T03:10:25;100594.00;;;22.07;56.34
48527;BME280;34317;51.660;5.824;2023-07-29T03:12:55;100594.00;;;22.07;56.28
48527;BME280;34317;51.660;5.824;2023-07-29T03:15:23;100595.69;;;22.08;56.30
48527;BME280;34317;51.660;5.824;2023-07-29T03:17:51;100594.00;;;22.07;56.33
48527;BME280;34317;51.660;5.824;2023-07-29T03:20:18;100589.59;;;22.06;56.33
48527;BME280;34317;51.660;5.824;2023-07-29T03:22:46;100577.09;;;22.05;56.32
48527;BME280;34317;51.660;5.824;2023-07-29T03:25:13;100588.88;;;22.04;56.30
48527;BME280;34317;51.660;5.824;2023-07-29T03:27:40;100582.78;;;22.02;56.28
48527;BME280;34317;51.660;5.824;2023-07-29T03:30:08;100585.81;;;21.99;56.30
48527;BME280;34317;51.660;5.824;2023-07-29T03:32:35;100584.09;;;21.97;56.33
48527;BME280;34317;51.660;5.824;2023-07-29T03:35:02;100580.69;;;21.95;56.28
48527;BME280;34317;51.660;5.824;2023-07-29T03:37:30;100582.69;;;21.93;56.35
48527;BME280;34317;51.660;5.824;2023-07-29T03:39:57;100586.38;;;21.92;56.30
48527;BME280;34317;51.660;5.824;2023-07-29T03:42:26;100586.69;;;21.89;56.33
48527;BME280;34317;51.660;5.824;2023-07-29T03:44:53;100587.00;;;21.86;56.23
48527;BME280;34317;51.660;5.824;2023-07-29T03:47:20;100592.69;;;21.83;56.24
48527;BME280;34317;51.660;5.824;2023-07-29T03:49:47;100597.53;;;21.80;56.20
48527;BME280;34317;51.660;5.824;2023-07-29T03:52:16;100591.59;;;21.76;56.41
48527;BME280;34317;51.660;5.824;2023-07-29T03:54:43;100597.25;;;21.73;56.29
48527;BME280;34317;51.660;5.824;2023-07-29T03:57:10;100601.25;;;21.69;56.31
48527;BME280;34317;51.660;5.824;2023-07-29T03:59:38;100612.31;;;21.66;56.34
48527;BME280;34317;51.660;5.824;2023-07-29T04:02:05;100614.63;;;21.61;56.44
48527;BME280;34317;51.660;5.824;2023-07-29T04:04:32;100601.44;;;21.57;56.41
48527;BME280;34317;51.660;5.824;2023-07-29T04:07:00;100598.19;;;21.54;56.45
48527;BME280;34317;51.660;5.824;2023-07-29T04:09:27;100597.63;;;21.50;56.46
48527;BME280;34317;51.660;5.824;2023-07-29T04:11:54;100594.22;;;21.48;56.40
48527;BME280;34317;51.660;5.824;2023-07-29T04:14:21;100582.03;;;21.44;56.51
48527;BME280;34317;51.660;5.824;2023-07-29T04:16:49;100584.00;;;21.42;56.40
48527;BME280;34317;51.660;5.824;2023-07-29T04:19:16;100577.22;;;21.38;56.43
48527;BME280;34317;51.660;5.824;2023-07-29T04:21:44;100565.00;;;21.34;56.40
48527;BME280;34317;51.660;5.824;2023-07-29T04:24:13;100561.59;;;21.32;56.54
48527;BME280;34317;51.660;5.824;2023-07-29T04:26:40;100565.31;;;21.31;56.48
48527;BME280;34317;51.660;5.824;2023-07-29T04:29:07;100568.16;;;21.29;56.62
48527;BME280;34317;51.660;5.824;2023-07-29T04:31:34;100571.81;;;21.28;56.44
48527;BME280;34317;51.660;5.824;2023-07-29T04:34:01;100570.16;;;21.27;56.44
48527;BME280;34317;51.660;5.824;2023-07-29T04:36:29;100555.97;;;21.25;56.42
48527;BME280;34317;51.660;5.824;2023-07-29T04:38:56;100569.59;;;21.24;56.53
48527;BME280;34317;51.660;5.824;2023-07-29T04:41:23;100583.19;;;21.22;56.40
48527;BME280;34317;51.660;5.824;2023-07-29T04:43:50;100600.50;;;21.19;56.52
48527;BME280;34317;51.660;5.824;2023-07-29T04:46:17;100608.72;;;21.18;56.48
48527;BME280;34317;51.660;5.824;2023-07-29T04:48:44;100613.53;;;21.14;56.64
48527;BME280;34317;51.660;5.824;2023-07-29T04:51:11;100626.31;;;21.12;56.52
48527;BME280;34317;51.660;5.824;2023-07-29T04:53:40;100621.19;;;21.09;56.57
48527;BME280;34317;51.660;5.824;2023-07-29T04:56:07;100621.50;;;21.06;56.59
48527;BME280;34317;51.660;5.824;2023-07-29T04:58:34;100622.47;;;21.05;56.63
48527;BME280;34317;51.660;5.824;2023-07-29T05:01:02;100626.19;;;21.04;56.62
48527;BME280;34317;51.660;5.824;2023-07-29T05:03:30;100621.78;;;21.03;56.67
48527;BME280;34317;51.660;5.824;2023-07-29T05:05:58;100626.19;;;21.04;56.63
48527;BME280;34317;51.660;5.824;2023-07-29T05:08:26;100632.53;;;21.03;56.63
48527;BME280;34317;51.660;5.824;2023-07-29T05:10:53;100630.84;;;21.02;56.61
48527;BME280;34317;51.660;5.824;2023-07-29T05:13:21;100622.78;;;21.02;56.68
48527;BME280;34317;51.660;5.824;2023-07-29T05:15:48;100621.78;;;21.03;56.78
48527;BME280;34317;51.660;5.824;2023-07-29T05:18:16;100628.88;;;21.04;56.71
48527;BME280;34317;51.660;5.824;2023-07-29T05:20:43;100634.25;;;21.04;56.77
48527;BME280;34317;51.660;5.824;2023-07-29T05:23:10;100635.94;;;21.05;56.77
48527;BME280;34317;51.660;5.824;2023-07-29T05:25:38;100630.56;;;21.05;56.90
48527;BME280;34317;51.660;5.824;2023-07-29T05:28:06;100636.78;;;21.06;56.81
48527;BME280;34317;51.660;5.824;2023-07-29T05:30:33;100644.72;;;21.07;56.78
48527;BME280;34317;51.660;5.824;2023-07-29T05:33:06;100651.81;;;21.08;56.82
48527;BME280;34317;51.660;5.824;2023-07-29T05:35:35;100658.88;;;21.09;56.72
48527;BME280;34317;51.660;5.824;2023-07-29T05:38:02;100662.59;;;21.08;56.75
48527;BME280;34317;51.660;5.824;2023-07-29T05:40:32;100654.38;;;21.10;56.82
48527;BME280;34317;51.660;5.824;2023-07-29T05:42:59;100656.91;;;21.11;56.86
48527;BME280;34317;51.660;5.824;2023-07-29T05:45:26;100657.78;;;21.12;56.97
48527;BME280;34317;51.660;5.824;2023-07-29T05:47:53;100647.84;;;21.12;56.81
48527;BME280;34317;51.660;5.824;2023-07-29T05:50:21;100647.84;;;21.12;56.81
48527;BME280;34317;51.660;5.824;2023-07-29T05:52:48;100644.16;;;21.13;56.79
48527;BME280;34317;51.660;5.824;2023-07-29T05:55:16;100645.84;;;21.14;56.79
48527;BME280;34317;51.660;5.824;2023-07-29T05:57:43;100640.47;;;21.14;56.78
48527;BME280;34317;51.660;5.824;2023-07-29T06:00:10;100649.25;;;21.16;56.84
48527;BME280;34317;51.660;5.824;2023-07-29T06:02:40;100646.44;;;21.18;56.92
48527;BME280;34317;51.660;5.824;2023-07-29T06:05:15;100648.97;;;21.19;56.79
48527;BME280;34317;51.660;5.824;2023-07-29T06:07:42;100643.59;;;21.19;56.80
48527;BME280;34317;51.660;5.824;2023-07-29T06:10:13;100647.00;;;21.22;56.86
48527;BME280;34317;51.660;5.824;2023-07-29T06:12:40;100653.78;;;21.26;56.85
48527;BME280;34317;51.660;5.824;2023-07-29T06:15:07;100652.50;;;21.30;56.87
48527;BME280;34317;51.660;5.824;2023-07-29T06:17:34;100652.94;;;21.35;56.96
48527;BME280;34317;51.660;5.824;2023-07-29T06:20:01;100654.06;;;21.42;57.04
48527;BME280;34317;51.660;5.824;2023-07-29T06:22:30;100653.50;;;21.48;57.00
48527;BME280;34317;51.660;5.824;2023-07-29T06:24:57;100640.16;;;21.56;57.14
48527;BME280;34317;51.660;5.824;2023-07-29T06:27:24;100637.59;;;21.65;56.99
48527;BME280;34317;51.660;5.824;2023-07-29T06:29:52;100638.72;;;21.72;56.96
48527;BME280;34317;51.660;5.824;2023-07-29T06:32:19;100634.41;;;21.79;56.92
48527;BME280;34317;51.660;5.824;2023-07-29T06:34:46;100640.63;;;21.89;56.97
48527;BME280;34317;51.660;5.824;2023-07-29T06:37:13;100646.81;;;22.00;57.08
48527;BME280;34317;51.660;5.824;2023-07-29T06:39:40;100649.66;;;22.08;56.94
48527;BME280;34317;51.660;5.824;2023-07-29T06:42:07;100644.47;;;22.14;56.93
48527;BME280;34317;51.660;5.824;2023-07-29T06:44:34;100652.69;;;22.23;56.94
48527;BME280;34317;51.660;5.824;2023-07-29T06:47:05;100650.97;;;22.31;56.86
48527;BME280;34317;51.660;5.824;2023-07-29T06:49:33;100642.13;;;22.39;56.90
48527;BME280;34317;51.660;5.824;2023-07-29T06:52:00;100655.88;;;22.46;56.84
48527;BME280;34317;51.660;5.824;2023-07-29T06:54:27;100650.56;;;22.54;56.73
48527;BME280;34317;51.660;5.824;2023-07-29T06:56:55;100659.75;;;22.61;56.91
48527;BME280;34317;51.660;5.824;2023-07-29T06:59:22;100670.81;;;22.68;56.76
48527;BME280;34317;51.660;5.824;2023-07-29T07:01:52;100666.63;;;22.73;56.68
48527;BME280;34317;51.660;5.824;2023-07-29T07:04:19;100662.31;;;22.81;56.78
48527;BME280;34317;51.660;5.824;2023-07-29T07:06:46;100667.41;;;22.84;56.57
48527;BME280;34317;51.660;5.824;2023-07-29T07:09:13;100662.00;;;22.84;56.53
48527;BME280;34317;51.660;5.824;2023-07-29T07:11:41;100660.00;;;22.86;56.50
48527;BME280;34317;51.660;5.824;2023-07-29T07:14:08;100661.72;;;22.87;56.28
48527;BME280;34317;51.660;5.824;2023-07-29T07:16:35;100667.81;;;22.89;56.53
48527;BME280;34317;51.660;5.824;2023-07-29T07:19:04;100660.75;;;22.96;56.64
48527;BME280;34317;51.660;5.824;2023-07-29T07:21:31;100659.88;;;23.05;56.72
48527;BME280;34317;51.660;5.824;2023-07-29T07:23:59;100654.91;;;23.19;56.80
48527;BME280;34317;51.660;5.824;2023-07-29T07:26:26;100660.78;;;23.32;56.88
48527;BME280;34317;51.660;5.824;2023-07-29T07:28:53;100668.31;;;23.46;56.74
48527;BME280;34317;51.660;5.824;2023-07-29T07:31:21;100669.78;;;23.59;56.91
48527;BME280;34317;51.660;5.824;2023-07-29T07:33:48;100678.63;;;23.69;56.56
48527;BME280;34317;51.660;5.824;2023-07-29T07:36:15;100667.16;;;23.75;56.47
48527;BME280;34317;51.660;5.824;2023-07-29T07:38:44;100673.13;;;23.79;56.37
48527;BME280;34317;51.660;5.824;2023-07-29T07:41:12;100677.38;;;23.81;56.13
48527;BME280;34317;51.660;5.824;2023-07-29T07:43:39;100668.25;;;23.82;56.20
48527;BME280;34317;51.660;5.824;2023-07-29T07:46:06;100677.38;;;23.81;56.07
48527;BME280;34317;51.660;5.824;2023-07-29T07:48:33;100671.97;;;23.81;56.12
48527;BME280;34317;51.660;5.824;2023-07-29T07:51:00;100680.78;;;23.83;56.22
48527;BME280;34317;51.660;5.824;2023-07-29T07:53:27;100677.44;;;23.89;56.35
48527;BME280;34317;51.660;5.824;2023-07-29T07:55:54;100683.75;;;23.98;56.30
48527;BME280;34317;51.660;5.824;2023-07-29T07:58:21;100682.25;;;24.04;56.23
48527;BME280;34317;51.660;5.824;2023-07-29T08:00:48;100687.31;;;24.07;56.13
48527;BME280;34317;51.660;5.824;2023-07-29T08:03:17;100684.47;;;24.08;55.88
48527;BME280;34317;51.660;5.824;2023-07-29T08:05:44;100684.31;;;24.10;56.12
48527;BME280;34317;51.660;5.824;2023-07-29T08:08:11;100685.84;;;24.13;56.02
48527;BME280;34317;51.660;5.824;2023-07-29T08:10:38;100685.00;;;24.12;55.77
48527;BME280;34317;51.660;5.824;2023-07-29T08:13:05;100692.44;;;24.10;55.91
48527;BME280;34317;51.660;5.824;2023-07-29T08:15:32;100687.00;;;24.10;55.90
48527;BME280;34317;51.660;5.824;2023-07-29T08:17:59;100677.91;;;24.11;56.33
48527;BME280;34317;51.660;5.824;2023-07-29T08:20:27;100687.22;;;24.17;55.93
48527;BME280;34317;51.660;5.824;2023-07-29T08:22:54;100682.31;;;24.20;55.98
48527;BME280;34317;51.660;5.824;2023-07-29T08:25:21;100682.00;;;24.23;55.91
48527;BME280;34317;51.660;5.824;2023-07-29T08:27:48;100681.34;;;24.29;56.27
48527;BME280;34317;51.660;5.824;2023-07-29T08:30:15;100671.56;;;24.37;56.06
48527;BME280;34317;51.660;5.824;2023-07-29T08:32:42;100679.75;;;24.45;56.09
48527;BME280;34317;51.660;5.824;2023-07-29T08:35:12;100684.16;;;24.54;55.99
48527;BME280;34317;51.660;5.824;2023-07-29T08:37:39;100681.00;;;24.59;56.12
48527;BME280;34317;51.660;5.824;2023-07-29T08:40:06;100692.88;;;24.66;56.23
48527;BME280;34317;51.660;5.824;2023-07-29T08:42:33;100691.34;;;24.72;55.90
48527;BME280;34317;51.660;5.824;2023-07-29T08:45:01;100697.47;;;24.82;56.26
48527;BME280;34317;51.660;5.824;2023-07-29T08:47:32;100702.56;;;24.93;55.98
48527;BME280;34317;51.660;5.824;2023-07-29T08:50:00;100708.00;;;25.01;55.85
48527;BME280;34317;51.660;5.824;2023-07-29T08:52:29;100694.47;;;25.10;55.63
48527;BME280;34317;51.660;5.824;2023-07-29T08:54:56;100693.78;;;25.16;55.93
48527;BME280;34317;51.660;5.824;2023-07-29T08:57:23;100694.84;;;25.23;55.73
48527;BME280;34317;51.660;5.824;2023-07-29T08:59:51;100694.16;;;25.29;55.79
48527;BME280;34317;51.660;5.824;2023-07-29T09:02:18;100685.53;;;25.34;55.37
48527;BME280;34317;51.660;5.824;2023-07-29T09:04:46;100687.72;;;25.38;55.77
48527;BME280;34317;51.660;5.824;2023-07-29T09:07:13;100695.19;;;25.44;55.66
48527;BME280;34317;51.660;5.824;2023-07-29T09:09:41;100690.44;;;25.47;55.42
48527;BME280;34317;51.660;5.824;2023-07-29T09:12:08;100684.34;;;25.53;55.55
48527;BME280;34317;51.660;5.824;2023-07-29T09:14:35;100681.63;;;25.61;55.58
48527;BME280;34317;51.660;5.824;2023-07-29T09:17:02;100690.44;;;25.71;55.71
48527;BME280;34317;51.660;5.824;2023-07-29T09:19:32;100690.41;;;25.79;55.64
48527;BME280;34317;51.660;5.824;2023-07-29T09:21:59;100685.13;;;25.86;55.43
48527;BME280;34317;51.660;5.824;2023-07-29T09:24:26;100674.13;;;25.96;55.69
48527;BME280;34317;51.660;5.824;2023-07-29T09:26:57;100670.66;;;26.10;55.79
48527;BME280;34317;51.660;5.824;2023-07-29T09:29:27;100673.34;;;26.27;55.58
48527;BME280;34317;51.660;5.824;2023-07-29T09:31:55;100675.00;;;26.36;55.28
48527;BME280;34317;51.660;5.824;2023-07-29T09:34:41;100667.50;;;26.38;55.14
48527;BME280;34317;51.660;5.824;2023-07-29T09:37:08;100661.03;;;26.39;54.99
48527;BME280;34317;51.660;5.824;2023-07-29T09:39:35;100658.81;;;26.42;54.97
48527;BME280;34317;51.660;5.824;2023-07-29T09:42:02;100657.63;;;26.45;54.98
48527;BME280;34317;51.660;5.824;2023-07-29T09:44:33;100655.94;;;26.44;54.85
48527;BME280;34317;51.660;5.824;2023-07-29T09:47:02;100640.97;;;26.48;55.07
48527;BME280;34317;51.660;5.824;2023-07-29T09:49:29;100654.53;;;26.56;55.09
48527;BME280;34317;51.660;5.824;2023-07-29T09:52:01;100655.34;;;26.65;54.77
48527;BME280;34317;51.660;5.824;2023-07-29T09:54:30;100655.13;;;26.75;55.15
48527;BME280;34317;51.660;5.824;2023-07-29T09:56:57;100656.38;;;26.87;55.22
48527;BME280;34317;51.660;5.824;2023-07-29T09:59:24;100662.44;;;26.97;55.00
48527;BME280;34317;51.660;5.824;2023-07-29T10:01:52;100660.97;;;27.10;54.57
48527;BME280;34317;51.660;5.824;2023-07-29T10:04:19;100656.50;;;27.17;54.57
48527;BME280;34317;51.660;5.824;2023-07-29T10:06:46;100664.97;;;27.22;54.64
48527;BME280;34317;51.660;5.824;2023-07-29T10:09:13;100669.19;;;27.25;54.33
48527;BME280;34317;51.660;5.824;2023-07-29T10:11:41;100672.09;;;27.23;54.39
48527;BME280;34317;51.660;5.824;2023-07-29T10:14:08;100677.22;;;27.18;54.33
48527;BME280;34317;51.660;5.824;2023-07-29T10:16:39;100672.50;;;27.12;54.00
48527;BME280;34317;51.660;5.824;2023-07-29T10:19:07;100675.63;;;27.09;54.28
48527;BME280;34317;51.660;5.824;2023-07-29T10:21:35;100680.09;;;27.02;54.18
48527;BME280;34317;51.660;5.824;2023-07-29T10:24:03;100676.03;;;26.97;54.13
48527;BME280;34317;51.660;5.824;2023-07-29T10:26:33;100669.91;;;26.95;54.21
48527;BME280;34317;51.660;5.824;2023-07-29T10:29:00;100678.94;;;26.96;53.98
48527;BME280;34317;51.660;5.824;2023-07-29T10:31:32;100674.34;;;26.96;54.07
48527;BME280;34317;51.660;5.824;2023-07-29T10:33:59;100667.00;;;26.97;54.01
48527;BME280;34317;51.660;5.824;2023-07-29T10:36:27;100656.63;;;27.00;54.34
48527;BME280;34317;51.660;5.824;2023-07-29T10:38:54;100666.41;;;27.10;54.31
48527;BME280;34317;51.660;5.824;2023-07-29T10:41:22;100659.88;;;27.19;54.33
48527;BME280;34317;51.660;5.824;2023-07-29T10:43:49;100653.38;;;27.28;54.26
48527;BME280;34317;51.660;5.824;2023-07-29T10:46:16;100657.34;;;27.41;54.26
48527;BME280;34317;51.660;5.824;2023-07-29T10:53:54;100637.31;;;27.71;54.07
48527;BME280;34317;51.660;5.824;2023-07-29T10:56:26;100638.75;;;27.82;53.96
48527;BME280;34317;51.660;5.824;2023-07-29T10:58:54;100639.31;;;27.92;54.12
48527;BME280;34317;51.660;5.824;2023-07-29T11:01:28;100643.25;;;28.05;53.96
48527;BME280;34317;51.660;5.824;2023-07-29T11:04:29;100647.66;;;28.21;54.11
48527;BME280;34317;51.660;5.824;2023-07-29T11:14:54;100645.91;;;28.49;53.56
48527;BME280;34317;51.660;5.824;2023-07-29T11:17:21;100647.63;;;28.50;53.48
48527;BME280;34317;51.660;5.824;2023-07-29T11:19:48;100651.78;;;28.46;53.21
48527;BME280;34317;51.660;5.824;2023-07-29T11:22:17;100652.13;;;28.43;53.05
48527;BME280;34317;51.660;5.824;2023-07-29T11:24:44;100647.47;;;28.37;53.15
48527;BME280;34317;51.660;5.824;2023-07-29T11:27:12;100649.91;;;28.32;53.11
48527;BME280;34317;51.660;5.824;2023-07-29T11:29:39;100637.25;;;28.24;52.80
48527;BME280;34317;51.660;5.824;2023-07-29T11:32:06;100640.91;;;28.17;52.64
48527;BME280;34317;51.660;5.824;2023-07-29T11:34:33;100635.78;;;28.07;53.00
48527;BME280;34317;51.660;5.824;2023-07-29T11:37:00;100634.00;;;27.99;53.04
48527;BME280;34317;51.660;5.824;2023-07-29T11:39:27;100635.13;;;27.90;52.61
48527;BME280;34317;51.660;5.824;2023-07-29T11:41:54;100636.22;;;27.81;52.65
48527;BME280;34317;51.660;5.824;2023-07-29T11:44:21;100645.31;;;27.73;53.09
48527;BME280;34317;51.660;5.824;2023-07-29T11:46:48;100647.25;;;27.64;52.82
48527;BME280;34317;51.660;5.824;2023-07-29T11:49:16;100648.38;;;27.55;52.93
48527;BME280;34317;51.660;5.824;2023-07-29T11:51:43;100652.84;;;27.48;53.07
48527;BME280;34317;51.660;5.824;2023-07-29T11:54:10;100655.31;;;27.43;53.16
48527;BME280;34317;51.660;5.824;2023-07-29T11:56:37;100658.22;;;27.41;53.11
48527;BME280;34317;51.660;5.824;2023-07-29T11:59:04;100647.16;;;27.43;52.98
48527;BME280;34317;51.660;5.824;2023-07-29T12:01:31;100656.63;;;27.47;53.34
48527;BME280;34317;51.660;5.824;2023-07-29T12:03:59;100656.22;;;27.50;53.03
48527;BME280;34317;51.660;5.824;2023-07-29T12:06:27;100657.94;;;27.51;53.01
48527;BME280;34317;51.660;5.824;2023-07-29T12:08:54;100650.44;;;27.53;53.31
48527;BME280;34317;51.660;5.824;2023-07-29T12:11:21;100645.94;;;27.60;53.44
48527;BME280;34317;51.660;5.824;2023-07-29T12:13:48;100651.59;;;27.73;53.54
48527;BME280;34317;51.660;5.824;2023-07-29T12:16:18;100645.59;;;27.93;53.34
48527;BME280;34317;51.660;5.824;2023-07-29T12:18:45;100631.81;;;28.09;53.54
48527;BME280;34317;51.660;5.824;2023-07-29T12:21:13;100638.91;;;28.25;53.40
48527;BME280;34317;51.660;5.824;2023-07-29T12:23:40;100640.31;;;28.36;53.05
48527;BME280;34317;51.660;5.824;2023-07-29T12:26:08;100642.66;;;28.39;52.89
48527;BME280;34317;51.660;5.824;2023-07-29T12:28:35;100644.47;;;28.32;52.67
48527;BME280;34317;51.660;5.824;2023-07-29T12:31:06;100665.69;;;28.22;52.52
48527;BME280;34317;51.660;5.824;2023-07-29T12:33:34;100686.94;;;28.11;52.38
48527;BME280;34317;51.660;5.824;2023-07-29T12:36:02;100713.97;;;27.98;52.06
48527;BME280;34317;51.660;5.824;2023-07-29T12:38:30;100697.03;;;27.73;51.85
48527;BME280;34317;51.660;5.824;2023-07-29T12:40:57;100704.63;;;27.40;51.78
48527;BME280;34317;51.660;5.824;2023-07-29T12:43:25;100722.59;;;26.94;51.29
48527;BME280;34317;51.660;5.824;2023-07-29T12:45:52;100718.38;;;26.52;51.58
48527;BME280;34317;51.660;5.824;2023-07-29T12:48:19;100742.97;;;26.11;51.56
48527;BME280;34317;51.660;5.824;2023-07-29T12:50:46;100747.03;;;25.74;51.77
48527;BME280;34317;51.660;5.824;2023-07-29T12:53:13;100711.28;;;25.38;51.85
48527;BME280;34317;51.660;5.824;2023-07-29T12:55:40;100719.88;;;25.09;52.47
48527;BME280;34317;51.660;5.824;2023-07-29T12:58:07;100716.25;;;24.83;52.63
48527;BME280;34317;51.660;5.824;2023-07-29T13:00:34;100716.38;;;24.65;52.73
48527;BME280;34317;51.660;5.824;2023-07-29T13:03:01;100713.59;;;24.49;53.04
48527;BME280;34317;51.660;5.824;2023-07-29T13:05:32;100716.91;;;24.35;53.22
48527;BME280;34317;51.660;5.824;2023-07-29T13:08:00;100721.06;;;24.21;53.17